createdAt,value
2023-06-28T00:00:43.462Z,97133.63
2023-06-28T00:03:10.278Z,97141.59
2023-06-28T00:05:36.851Z,97153.31
2023-06-28T00:08:03.382Z,97143.56
2023-06-28T00:10:29.918Z,97144.69
2023-06-28T00:12:56.800Z,97143.09
2023-06-28T00:15:23.386Z,97159.41
2023-06-28T00:17:50.055Z,97154.63
2023-06-28T00:20:16.625Z,97202.72
2023-06-28T00:22:43.134Z,97146.59
2023-06-28T00:25:09.967Z,97144.22
2023-06-28T00:27:36.453Z,97182.75
2023-06-28T00:30:03.404Z,97165.50
2023-06-28T00:32:29.985Z,97172.81
2023-06-28T00:34:56.503Z,97168.19
2023-06-28T00:37:23.067Z,97155.72
2023-06-28T00:39:49.630Z,97163.75
2023-06-28T00:42:16.279Z,97166.63
2023-06-28T00:44:42.827Z,97184.84
2023-06-28T00:47:09.438Z,97207.34
2023-06-28T00:49:36.966Z,97204.16
2023-06-28T00:52:03.587Z,97239.16
2023-06-28T00:54:30.479Z,97242.34
2023-06-28T00:56:57.108Z,97257.19
2023-06-28T00:59:23.767Z,97258.59
2023-06-28T01:01:50.410Z,97211.88
2023-06-28T01:04:17.101Z,97247.25
2023-06-28T01:06:44.740Z,97235.66
2023-06-28T01:09:11.524Z,97243.09
2023-06-28T01:11:38.335Z,97243.09
2023-06-28T01:14:05.654Z,97265.59
2023-06-28T01:16:32.278Z,97268.78
2023-06-28T01:18:58.848Z,97258.78
2023-06-28T01:21:25.345Z,97265.16
2023-06-28T01:23:51.885Z,97248.47
2023-06-28T01:26:18.483Z,97241.63
2023-06-28T01:28:45.006Z,97238.13
2023-06-28T01:31:11.841Z,97243.56
2023-06-28T01:33:38.766Z,97241.88
2023-06-28T01:36:05.521Z,97238.00
2023-06-28T01:38:32.146Z,97238.63
2023-06-28T01:40:58.644Z,97240.31
2023-06-28T01:43:25.152Z,97238.34
2023-06-28T01:45:51.691Z,97232.16
2023-06-28T01:48:18.240Z,97235.28
2023-06-28T01:50:44.852Z,97248.75
2023-06-28T01:53:11.422Z,97237.91
2023-06-28T01:55:40.378Z,97215.38
2023-06-28T01:58:06.944Z,97245.88
2023-06-28T02:00:33.463Z,97238.22
2023-06-28T02:03:00.060Z,97219.88
2023-06-28T02:05:27.087Z,97197.53
2023-06-28T02:07:53.685Z,97198.56
2023-06-28T02:10:22.227Z,97202.44
2023-06-28T02:12:48.726Z,97179.69
2023-06-28T02:15:15.271Z,97187.34
2023-06-28T02:17:41.871Z,97187.53
2023-06-28T02:20:08.855Z,97181.84
2023-06-28T02:22:35.369Z,97167.50
2023-06-28T02:25:01.914Z,97191.72
2023-06-28T02:27:28.652Z,97173.34
2023-06-28T02:29:55.203Z,97167.25
2023-06-28T02:32:21.775Z,97179.41
2023-06-28T02:34:48.286Z,97192.03
2023-06-28T02:37:14.846Z,97163.72
2023-06-28T02:39:41.440Z,97174.78
2023-06-28T02:42:07.993Z,97158.25
2023-06-28T02:44:37.529Z,97167.50
2023-06-28T02:47:04.593Z,97164.69
2023-06-28T02:49:31.171Z,97150.94
2023-06-28T02:51:57.694Z,97155.16
2023-06-28T02:54:24.257Z,97159.44
2023-06-28T02:56:50.745Z,97156.38
2023-06-28T02:59:17.200Z,97146.38
2023-06-28T03:01:43.793Z,97142.78
2023-06-28T03:04:10.343Z,97153.91
2023-06-28T03:06:36.932Z,97131.16
2023-06-28T03:09:03.523Z,97126.97
2023-06-28T03:11:30.081Z,97158.63
2023-06-28T03:13:56.573Z,97161.41
2023-06-28T03:16:23.389Z,97154.91
2023-06-28T03:18:49.979Z,97153.63
2023-06-28T03:21:16.501Z,97152.81
2023-06-28T03:23:43.050Z,97144.31
2023-06-28T03:26:09.696Z,97148.41
2023-06-28T03:28:36.298Z,97159.75
2023-06-28T03:31:03.074Z,97137.28
2023-06-28T03:33:29.584Z,97179.28
2023-06-28T03:35:56.060Z,97175.06
2023-06-28T03:38:22.596Z,97174.25
2023-06-28T03:40:49.164Z,97211.34
2023-06-28T03:43:15.733Z,97171.03
2023-06-28T03:45:42.316Z,97190.28
2023-06-28T03:48:08.856Z,97191.09
2023-06-28T03:50:35.406Z,97203.81
2023-06-28T03:53:01.918Z,97208.22
2023-06-28T03:55:28.474Z,97218.63
2023-06-28T03:57:55.000Z,97198.09
2023-06-28T04:00:21.515Z,97216.03
2023-06-28T04:02:48.270Z,97218.63
2023-06-28T04:05:15.077Z,97207.06
2023-06-28T04:07:41.730Z,97217.69
2023-06-28T04:10:08.603Z,97221.28
2023-06-28T04:12:35.156Z,97208.16
2023-06-28T04:15:01.667Z,97207.16
2023-06-28T04:17:28.344Z,97191.91
2023-06-28T04:19:55.453Z,97196.59
2023-06-28T04:22:21.903Z,97223.34
2023-06-28T04:24:48.412Z,97215.31
2023-06-28T04:27:14.946Z,97209.78
2023-06-28T04:29:41.555Z,97219.69
2023-06-28T04:32:20.547Z,97232.25
2023-06-28T04:34:47.325Z,97237.88
2023-06-28T04:37:15.887Z,97234.53
2023-06-28T04:39:43.074Z,97231.94
2023-06-28T04:42:09.637Z,97243.16
2023-06-28T04:44:36.474Z,97243.34
2023-06-28T04:47:03.070Z,97248.47
2023-06-28T04:49:29.596Z,97250.53
2023-06-28T04:51:56.157Z,97241.63
2023-06-28T04:54:22.610Z,97250.44
2023-06-28T04:56:49.090Z,97229.25
2023-06-28T04:59:15.566Z,97223.81
2023-06-28T05:01:42.935Z,97226.38
2023-06-28T05:04:09.636Z,97236.47
2023-06-28T05:06:36.308Z,97241.91
2023-06-28T05:09:03.217Z,97248.81
2023-06-28T05:11:29.756Z,97226.13
2023-06-28T05:13:56.334Z,97247.72
2023-06-28T05:16:23.033Z,97245.47
2023-06-28T05:18:49.710Z,97239.25
2023-06-28T05:21:16.301Z,97203.50
2023-06-28T05:23:42.764Z,97269.41
2023-06-28T05:26:09.206Z,97215.09
2023-06-28T05:28:36.077Z,97233.66
2023-06-28T05:31:02.657Z,97205.38
2023-06-28T05:33:29.145Z,97228.66
2023-06-28T05:35:55.706Z,97233.97
2023-06-28T05:38:22.186Z,97233.47
2023-06-28T05:40:51.336Z,97219.56
2023-06-28T05:43:17.821Z,97221.69
2023-06-28T05:45:44.375Z,97212.56
2023-06-28T05:48:10.977Z,97227.47
2023-06-28T05:50:40.728Z,97236.22
2023-06-28T05:53:07.918Z,97231.28
2023-06-28T05:55:34.333Z,97241.34
2023-06-28T05:58:00.867Z,97271.41
2023-06-28T06:00:27.393Z,97232.16
2023-06-28T06:02:53.938Z,97237.56
2023-06-28T06:05:20.577Z,97228.59
2023-06-28T06:07:47.070Z,97225.91
2023-06-28T06:10:15.089Z,97222.16
2023-06-28T06:12:41.704Z,97247.13
2023-06-28T06:15:08.417Z,97208.63
2023-06-28T06:17:34.989Z,97235.13
2023-06-28T06:20:01.526Z,97254.34
2023-06-28T06:22:28.112Z,97265.53
2023-06-28T06:24:54.681Z,97239.72
2023-06-28T06:27:21.266Z,97250.69
2023-06-28T06:29:47.970Z,97226.81
2023-06-28T06:32:14.471Z,97261.84
2023-06-28T06:34:41.039Z,97261.06
2023-06-28T06:37:07.586Z,97236.63
2023-06-28T06:39:34.108Z,97252.19
2023-06-28T06:42:00.665Z,97229.41
2023-06-28T06:44:27.185Z,97273.25
2023-06-28T06:46:53.721Z,97231.31
2023-06-28T06:49:20.340Z,97231.19
2023-06-28T06:51:47.070Z,97235.38
2023-06-28T06:54:13.636Z,97236.28
2023-06-28T06:56:40.282Z,97239.59
2023-06-28T06:59:06.872Z,97232.13
2023-06-28T07:01:33.431Z,97225.50
2023-06-28T07:04:00.183Z,97248.31
2023-06-28T07:06:26.691Z,97248.00
2023-06-28T07:08:53.630Z,97234.75
2023-06-28T07:11:20.243Z,97228.06
2023-06-28T07:13:46.799Z,97234.13
2023-06-28T07:16:28.850Z,97242.59
2023-06-28T07:19:16.137Z,97258.00
2023-06-28T07:21:45.690Z,97248.31
2023-06-28T07:27:03.075Z,97250.03
2023-06-28T07:29:29.744Z,97279.94
2023-06-28T07:31:56.381Z,97257.19
2023-06-28T07:34:23.161Z,97235.69
2023-06-28T07:36:49.703Z,97218.09
2023-06-28T07:39:16.259Z,97271.44
2023-06-28T07:41:42.813Z,97231.56
2023-06-28T07:44:09.386Z,97242.50
2023-06-28T07:46:36.015Z,97235.66
2023-06-28T07:49:02.654Z,97223.63
2023-06-28T07:51:29.382Z,97225.84
2023-06-28T07:53:56.169Z,97236.44
2023-06-28T07:56:22.712Z,97231.06
2023-06-28T07:58:49.237Z,97232.72
2023-06-28T08:01:15.749Z,97236.56
2023-06-28T08:03:42.313Z,97252.28
2023-06-28T08:06:08.882Z,97253.75
2023-06-28T08:08:35.447Z,97246.44
2023-06-28T08:11:01.981Z,97220.88
2023-06-28T08:13:28.476Z,97223.88
2023-06-28T08:15:54.965Z,97232.53
2023-06-28T08:18:21.469Z,97209.69
2023-06-28T08:20:48.142Z,97246.63
2023-06-28T08:23:14.664Z,97242.56
2023-06-28T08:25:41.717Z,97231.22
2023-06-28T08:28:08.642Z,97210.06
2023-06-28T08:30:35.179Z,97237.38
2023-06-28T08:33:01.644Z,97206.53
2023-06-28T08:35:28.314Z,97224.19
2023-06-28T08:37:55.104Z,97223.28
2023-06-28T08:40:24.925Z,97203.72
2023-06-28T08:42:51.498Z,97225.50
2023-06-28T08:45:18.005Z,97219.25
2023-06-28T08:47:44.544Z,97226.72
2023-06-28T08:50:11.378Z,97224.25
2023-06-28T08:52:37.897Z,97224.75
2023-06-28T08:57:35.978Z,97217.16
2023-06-28T09:00:02.541Z,97219.94
2023-06-28T09:02:30.183Z,97197.84
2023-06-28T09:04:56.774Z,97194.81
2023-06-28T09:07:23.449Z,97213.25
2023-06-28T09:09:50.032Z,97211.97
2023-06-28T09:12:16.875Z,97204.38
2023-06-28T09:14:43.399Z,97207.97
2023-06-28T09:17:09.915Z,97220.78
2023-06-28T09:19:36.676Z,97210.69
2023-06-28T09:22:03.628Z,97199.75
2023-06-28T09:24:33.119Z,97181.44
2023-06-28T09:27:02.634Z,97187.25
2023-06-28T09:29:29.079Z,97182.84
2023-06-28T09:31:55.622Z,97186.47
2023-06-28T09:34:22.427Z,97193.50
2023-06-28T09:36:58.087Z,97173.41
2023-06-28T09:39:25.754Z,97172.19
2023-06-28T09:41:52.479Z,97207.34
2023-06-28T09:44:28.479Z,97170.81
2023-06-28T09:46:59.870Z,97181.31
2023-06-28T09:49:26.376Z,97184.09
2023-06-28T09:51:59.634Z,97175.38
2023-06-28T09:54:38.445Z,97183.72
2023-06-28T09:57:05.213Z,97164.59
2023-06-28T09:59:36.030Z,97171.44
2023-06-28T10:02:12.660Z,97175.81
2023-06-28T10:04:39.398Z,97156.41
2023-06-28T10:07:06.664Z,97166.28
2023-06-28T10:09:40.114Z,97163.56
2023-06-28T10:12:13.243Z,97161.56
2023-06-28T10:14:40.262Z,97170.66
2023-06-28T10:17:06.861Z,97175.38
2023-06-28T10:19:33.702Z,97162.88
2023-06-28T10:22:02.071Z,97154.06
2023-06-28T10:24:28.544Z,97135.41
2023-06-28T10:26:55.042Z,97165.13
2023-06-28T10:29:21.607Z,97158.78
2023-06-28T10:31:50.792Z,97155.22
2023-06-28T10:34:17.599Z,97163.88
2023-06-28T10:36:44.461Z,97158.00
2023-06-28T10:39:10.974Z,97157.81
2023-06-28T10:41:38.507Z,97149.63
2023-06-28T10:44:06.010Z,97162.72
2023-06-28T10:46:32.787Z,97136.66
2023-06-28T10:48:59.746Z,97132.00
2023-06-28T10:51:31.225Z,97160.25
2023-06-28T10:54:13.399Z,97155.09
2023-06-28T10:56:49.463Z,97165.03
2023-06-28T10:59:16.055Z,97135.47
2023-06-28T11:01:51.636Z,97151.31
2023-06-28T11:04:24.501Z,97135.84
2023-06-28T11:07:09.703Z,97134.00
2023-06-28T11:09:36.830Z,97158.22
2023-06-28T11:12:05.307Z,97117.34
2023-06-28T11:14:32.240Z,97172.38
2023-06-28T11:17:02.748Z,97146.63
2023-06-28T11:19:29.327Z,97144.53
2023-06-28T11:21:59.259Z,97137.44
2023-06-28T11:24:37.170Z,97146.97
2023-06-28T11:27:04.711Z,97151.22
2023-06-28T11:29:31.379Z,97145.47
2023-06-28T11:31:58.375Z,97155.47
2023-06-28T11:34:25.456Z,97137.34
2023-06-28T11:36:52.152Z,97144.22
2023-06-28T11:39:19.648Z,97130.53
2023-06-28T11:41:46.684Z,97133.47
2023-06-28T11:44:15.327Z,97145.25
2023-06-28T11:46:43.023Z,97143.19
2023-06-28T11:49:09.894Z,97138.94
2023-06-28T11:51:39.236Z,97122.59
2023-06-28T11:54:10.537Z,97142.03
2023-06-28T11:56:43.021Z,97154.28
2023-06-28T11:59:17.277Z,97128.53
2023-06-28T12:01:44.616Z,97139.34
2023-06-28T12:04:20.428Z,97139.47
2023-06-28T12:06:49.426Z,97136.41
2023-06-28T12:09:28.488Z,97131.44
2023-06-28T12:11:55.429Z,97128.44
2023-06-28T12:14:22.061Z,97132.75
2023-06-28T12:16:48.984Z,97130.72
2023-06-28T12:19:15.692Z,97121.13
2023-06-28T12:21:42.191Z,97136.00
2023-06-28T12:24:13.152Z,97116.75
2023-06-28T12:26:40.178Z,97118.00
2023-06-28T12:29:07.045Z,97095.03
2023-06-28T12:32:05.398Z,97143.16
2023-06-28T12:34:32.634Z,97117.38
2023-06-28T12:37:00.517Z,97146.94
2023-06-28T12:39:30.218Z,97121.09
2023-06-28T12:42:03.213Z,97118.22
2023-06-28T12:44:31.397Z,97103.50
2023-06-28T12:46:58.117Z,97131.63
2023-06-28T12:49:27.264Z,97113.63
2023-06-28T12:51:53.826Z,97114.47
2023-06-28T12:54:20.339Z,97120.88
2023-06-28T12:56:46.991Z,97138.81
2023-06-28T12:59:13.431Z,97130.28
2023-06-28T13:01:40.308Z,97093.44
2023-06-28T13:04:06.969Z,97107.13
2023-06-28T13:06:33.549Z,97102.50
2023-06-28T13:09:00.106Z,97118.03
2023-06-28T13:11:26.660Z,97155.72
2023-06-28T13:13:53.140Z,97104.41
2023-06-28T13:16:19.660Z,97147.75
2023-06-28T13:18:46.287Z,97125.16
2023-06-28T13:21:12.708Z,97097.88
2023-06-28T13:23:39.295Z,97133.25
2023-06-28T13:26:06.153Z,97122.53
2023-06-28T13:28:32.686Z,97102.59
2023-06-28T13:30:59.276Z,97127.09
2023-06-28T13:33:25.940Z,97111.06
2023-06-28T13:35:52.502Z,97104.66
2023-06-28T13:38:19.060Z,97088.25
2023-06-28T13:40:45.606Z,97104.53
2023-06-28T13:43:14.775Z,97081.78
2023-06-28T13:45:41.493Z,97132.34
2023-06-28T13:48:08.497Z,97091.06
2023-06-28T13:50:35.403Z,97079.16
2023-06-28T13:53:02.356Z,97114.22
2023-06-28T13:55:29.016Z,97101.75
2023-06-28T13:57:55.638Z,97082.13
2023-06-28T14:00:22.401Z,97090.91
2023-06-28T14:02:49.499Z,97059.81
2023-06-28T14:05:16.334Z,97073.47
2023-06-28T14:07:42.857Z,97074.84
2023-06-28T14:10:09.555Z,97060.09
2023-06-28T14:12:36.197Z,97073.22
2023-06-28T14:15:02.837Z,97052.75
2023-06-28T14:17:29.519Z,97046.47
2023-06-28T14:19:56.141Z,97075.72
2023-06-28T14:22:22.718Z,97061.88
2023-06-28T14:24:49.299Z,97061.94
2023-06-28T14:27:15.900Z,97059.09
2023-06-28T14:29:42.372Z,97045.91
2023-06-28T14:32:09.109Z,97046.34
2023-06-28T14:34:35.902Z,97071.09
2023-06-28T14:37:02.464Z,97053.50
2023-06-28T14:39:29.020Z,97071.81
2023-06-28T14:41:55.514Z,97064.63
2023-06-28T14:44:21.988Z,97063.63
2023-06-28T14:46:48.605Z,97066.50
2023-06-28T14:49:32.943Z,97065.59
2023-06-28T14:52:00.486Z,97032.91
2023-06-28T14:54:27.105Z,97041.91
2023-06-28T14:56:53.721Z,97044.84
2023-06-28T14:59:20.301Z,97058.19
2023-06-28T15:01:47.246Z,97039.19
2023-06-28T15:04:14.004Z,97025.88
2023-06-28T15:06:40.792Z,97043.25
2023-06-28T15:09:07.374Z,97050.28
2023-06-28T15:11:33.903Z,97052.75
2023-06-28T15:14:00.484Z,97057.50
2023-06-28T15:16:27.027Z,97060.19
2023-06-28T15:18:53.598Z,97064.63
2023-06-28T15:21:20.147Z,97056.25
2023-06-28T15:23:46.755Z,97131.47
2023-06-28T15:26:13.396Z,97040.56
2023-06-28T15:28:39.993Z,97063.84
2023-06-28T15:31:06.582Z,97049.19
2023-06-28T15:33:33.149Z,97053.41
2023-06-28T15:36:00.050Z,97057.88
2023-06-28T15:38:26.583Z,97029.53
2023-06-28T15:40:53.154Z,97016.13
2023-06-28T15:43:19.781Z,97040.94
2023-06-28T15:45:46.235Z,97028.88
2023-06-28T15:48:12.734Z,97047.16
2023-06-28T15:50:39.487Z,97004.16
2023-06-28T15:53:05.988Z,97013.97
2023-06-28T15:55:32.617Z,97040.00
2023-06-28T15:57:59.326Z,97029.28
2023-06-28T16:00:25.993Z,97041.91
2023-06-28T16:02:52.796Z,97022.59
2023-06-28T16:05:19.981Z,97033.94
2023-06-28T16:07:46.628Z,97016.19
2023-06-28T16:10:13.203Z,97028.50
2023-06-28T16:12:39.994Z,97034.63
2023-06-28T16:15:07.167Z,97018.91
2023-06-28T16:17:34.367Z,97033.47
2023-06-28T16:20:01.730Z,97020.53
2023-06-28T16:22:31.040Z,97040.88
2023-06-28T16:24:59.013Z,97023.66
2023-06-28T16:27:25.599Z,97023.13
2023-06-28T16:29:54.099Z,97022.47
2023-06-28T16:32:20.750Z,97044.22
2023-06-28T16:34:49.414Z,97044.44
2023-06-28T16:37:16.829Z,97018.75
2023-06-28T16:39:46.420Z,97033.00
2023-06-28T16:42:13.072Z,97036.41
2023-06-28T16:44:39.796Z,97019.44
2023-06-28T16:47:06.468Z,97028.59
2023-06-28T16:49:33.030Z,97046.03
2023-06-28T16:51:59.607Z,97029.31
2023-06-28T16:54:26.134Z,97028.06
2023-06-28T16:56:52.821Z,97034.91
2023-06-28T16:59:19.358Z,97037.44
2023-06-28T17:01:46.300Z,97053.84
2023-06-28T17:04:13.088Z,97025.59
2023-06-28T17:06:39.818Z,97060.25
2023-06-28T17:09:06.584Z,97055.97
2023-06-28T17:11:33.200Z,97051.59
2023-06-28T17:14:00.051Z,97033.59
2023-06-28T17:16:26.774Z,97031.28
2023-06-28T17:18:53.424Z,97050.50
2023-06-28T17:21:19.970Z,97034.44
2023-06-28T17:23:46.598Z,97018.50
2023-06-28T17:26:13.245Z,97037.09
2023-06-28T17:28:39.837Z,97031.69
2023-06-28T17:31:06.364Z,97020.94
2023-06-28T17:33:33.082Z,97049.50
2023-06-28T17:35:59.675Z,97025.19
2023-06-28T17:38:26.194Z,97031.06
2023-06-28T17:40:52.767Z,97045.22
2023-06-28T17:43:19.346Z,97028.41
2023-06-28T17:45:45.936Z,97038.56
2023-06-28T17:48:12.612Z,97015.69
2023-06-28T17:50:39.266Z,97046.97
2023-06-28T17:53:05.834Z,97031.47
2023-06-28T17:55:32.420Z,97038.84
2023-06-28T17:57:59.154Z,97040.50
2023-06-28T18:00:25.667Z,97019.63
2023-06-28T18:02:52.410Z,97034.03
2023-06-28T18:05:19.100Z,97035.16
2023-06-28T18:07:45.639Z,97022.25
2023-06-28T18:10:12.233Z,97035.13
2023-06-28T18:12:38.999Z,97017.31
2023-06-28T18:15:06.176Z,97037.69
2023-06-28T18:17:33.019Z,97036.56
2023-06-28T18:19:59.580Z,97043.78
2023-06-28T18:22:26.151Z,97043.50
2023-06-28T18:24:52.856Z,97067.47
2023-06-28T18:27:19.582Z,97048.06
2023-06-28T18:29:46.150Z,97039.69
2023-06-28T18:32:12.791Z,97046.25
2023-06-28T18:34:39.307Z,97047.13
2023-06-28T18:37:05.987Z,97058.00
2023-06-28T18:39:32.665Z,97047.03
2023-06-28T18:41:59.283Z,97062.34
2023-06-28T18:44:25.817Z,97063.53
2023-06-28T18:46:52.687Z,97050.81
2023-06-28T18:49:19.283Z,97066.41
2023-06-28T18:51:45.788Z,97068.88
2023-06-28T18:54:12.452Z,97062.72
2023-06-28T18:56:38.965Z,97077.63
2023-06-28T18:59:06.805Z,97067.75
2023-06-28T19:01:34.405Z,97090.53
2023-06-28T19:04:01.082Z,97064.75
2023-06-28T19:06:27.707Z,97082.28
2023-06-28T19:08:54.202Z,97080.44
2023-06-28T19:11:20.698Z,97069.97
2023-06-28T19:13:47.386Z,97071.31
2023-06-28T19:16:14.041Z,97068.00
2023-06-28T19:18:40.585Z,97076.91
2023-06-28T19:21:07.476Z,97042.69
2023-06-28T19:23:34.129Z,97070.47
2023-06-28T19:26:00.639Z,97091.06
2023-06-28T19:28:27.102Z,97094.66
2023-06-28T19:30:53.783Z,97088.88
2023-06-28T19:33:21.051Z,97087.06
2023-06-28T19:35:47.534Z,97092.78
2023-06-28T19:38:14.136Z,97102.28
2023-06-28T19:40:40.713Z,97096.13
2023-06-28T19:43:07.453Z,97117.09
2023-06-28T19:45:34.043Z,97103.59
2023-06-28T19:48:00.584Z,97110.91
2023-06-28T19:50:27.117Z,97092.56
2023-06-28T19:52:53.743Z,97087.66
2023-06-28T19:55:20.296Z,97114.22
2023-06-28T19:57:46.816Z,97120.50
2023-06-28T20:00:13.473Z,97102.13
2023-06-28T20:02:40.186Z,97107.91
2023-06-28T20:05:07.028Z,97113.50
2023-06-28T20:07:33.655Z,97099.31
2023-06-28T20:10:00.259Z,97121.69
2023-06-28T20:12:26.763Z,97121.22
2023-06-28T20:14:53.392Z,97114.03
2023-06-28T20:17:20.298Z,97114.03
2023-06-28T20:19:46.902Z,97114.53
2023-06-28T20:22:13.410Z,97117.22
2023-06-28T20:24:39.922Z,97096.00
2023-06-28T20:27:06.763Z,97120.91
2023-06-28T20:29:33.343Z,97117.22
2023-06-28T20:31:59.853Z,97159.94
2023-06-28T20:34:26.345Z,97143.66
2023-06-28T20:36:52.813Z,97124.66
2023-06-28T20:39:19.388Z,97134.22
2023-06-28T20:41:45.974Z,97139.94
2023-06-28T20:44:12.697Z,97141.22
2023-06-28T20:46:39.199Z,97132.31
2023-06-28T20:49:05.776Z,97096.03
2023-06-28T20:51:32.330Z,97144.91
2023-06-28T20:53:58.960Z,97143.09
2023-06-28T20:56:25.346Z,97108.44
2023-06-28T20:58:51.909Z,97123.44
2023-06-28T21:01:18.409Z,97117.81
2023-06-28T21:03:44.915Z,97099.75
2023-06-28T21:06:11.464Z,97115.91
2023-06-28T21:08:37.962Z,97118.75
2023-06-28T21:11:04.545Z,97123.34
2023-06-28T21:13:31.060Z,97125.16
2023-06-28T21:15:57.603Z,97140.16
2023-06-28T21:18:24.140Z,97124.31
2023-06-28T21:20:50.608Z,97101.47
2023-06-28T21:23:17.129Z,97137.19
2023-06-28T21:25:44.111Z,97123.28
2023-06-28T21:28:10.798Z,97110.56
2023-06-28T21:30:37.507Z,97120.59
2023-06-28T21:33:04.450Z,97125.94
2023-06-28T21:35:31.025Z,97104.22
2023-06-28T21:37:57.529Z,97129.44
2023-06-28T21:40:24.048Z,97122.38
2023-06-28T21:42:50.706Z,97128.03
2023-06-28T21:45:17.265Z,97106.66
2023-06-28T21:47:43.883Z,97124.44
2023-06-28T21:50:10.651Z,97129.56
2023-06-28T21:52:37.208Z,97119.97
2023-06-28T21:55:03.773Z,97123.88
2023-06-28T21:57:30.369Z,97121.50
2023-06-28T21:59:58.144Z,97115.56
2023-06-28T22:02:24.914Z,97126.94
2023-06-28T22:04:51.903Z,97132.19
2023-06-28T22:07:18.493Z,97104.13
2023-06-28T22:09:44.971Z,97129.22
2023-06-28T22:12:11.751Z,97139.75
2023-06-28T22:14:38.989Z,97133.38
2023-06-28T22:17:06.663Z,97131.38
2023-06-28T22:19:33.298Z,97128.38
2023-06-28T22:21:59.890Z,97129.47
2023-06-28T22:24:26.362Z,97113.78
2023-06-28T22:26:53.007Z,97112.59
2023-06-28T22:29:19.943Z,97131.91
2023-06-28T22:31:46.441Z,97103.75
2023-06-28T22:34:13.024Z,97133.00
2023-06-28T22:36:39.591Z,97136.00
2023-06-28T22:39:06.079Z,97126.78
2023-06-28T22:41:32.594Z,97127.38
2023-06-28T22:43:59.056Z,97140.22
2023-06-28T22:46:25.586Z,97127.19
2023-06-28T22:48:52.164Z,97122.59
2023-06-28T22:51:18.715Z,97116.19
2023-06-28T22:53:45.295Z,97114.38
2023-06-28T22:56:12.164Z,97113.31
2023-06-28T22:58:38.679Z,97113.59
2023-06-28T23:01:05.490Z,97130.41
2023-06-28T23:03:32.142Z,97111.41
2023-06-28T23:05:58.974Z,97124.88
2023-06-28T23:08:25.568Z,97110.47
2023-06-28T23:10:52.254Z,97105.06
2023-06-28T23:13:19.118Z,97112.66
2023-06-28T23:15:46.138Z,97118.78
2023-06-28T23:18:12.799Z,97132.72
2023-06-28T23:20:39.309Z,97126.19
2023-06-28T23:23:05.846Z,97112.78
2023-06-28T23:25:32.387Z,97118.03
2023-06-28T23:27:58.902Z,97133.44
2023-06-28T23:30:25.447Z,97139.53
2023-06-28T23:32:52.092Z,97117.50
2023-06-28T23:35:18.704Z,97115.41
2023-06-28T23:37:45.206Z,97124.41
2023-06-28T23:40:12.024Z,97107.41
2023-06-28T23:42:38.714Z,97125.78
2023-06-28T23:45:05.389Z,97105.50
2023-06-28T23:47:32.091Z,97118.38
2023-06-28T23:49:58.748Z,97117.63
2023-06-28T23:52:25.221Z,97120.28
2023-06-28T23:54:51.807Z,97118.06
2023-06-28T23:57:18.276Z,97097.66
2023-06-28T23:59:44.726Z,97091.25
